• Join FlightAware (Why Join?)
  • Login
  • US Flag 
03:57AM EDT


 

Airport Tracker/Info


-or-


 

Live Flight TrackerFlight Track Log ✈ JTA271 ✈ 17-Jun-2013 ✈ RJBB / KIX - ROAH / OKA

Flight Track Log - Related Links

Times and Time Zones

All times are in EDT time to prevent confusion due to time zone crossing. See the JTA271 flight status page for this flight to view local times or setup timezone preferences in your user account.

Time Position Orientation Groundspeed Altitude Reporting Facility
EDT Latitude Longitude Course Direction KTS MPH feet Rate Location/Type
08:15PM 34.1637 134.9719 221° Southwest  Level Estimated
08:16PM 34.0757 134.8815 220° Southwest  Level Estimated
08:17PM 33.9876 134.7914 220° Southwest  Level Estimated
08:18PM 33.8994 134.7014 220° Southwest  Level Estimated
08:19PM 33.8112 134.6116 220° Southwest  Level Estimated
08:20PM 33.7230 134.5220 220° Southwest  Level Estimated
08:21PM 33.6336 134.4316 220° Southwest  Level Estimated
08:22PM 33.5443 134.3413 220° Southwest  Level Estimated
08:23PM 33.4548 134.2513 220° Southwest  Level Estimated
08:24PM 33.3653 134.1614 220° Southwest  Level Estimated
08:25PM 33.2757 134.0718 220° Southwest  Level Estimated
08:26PM 33.1861 133.9823 220° Southwest  Level Estimated
08:27PM 33.0964 133.8930 220° Southwest  Level Estimated
08:28PM 33.0066 133.8038 220° Southwest  Level Estimated
08:29PM 32.9168 133.7149 220° Southwest  Level Estimated
08:30PM 32.8269 133.6261 220° Southwest  Level Estimated
08:31PM 32.7369 133.5376 220° Southwest  Level Estimated
08:32PM 32.6469 133.4492 220° Southwest  Level Estimated
08:33PM 32.5568 133.3609 220° Southwest  Level Estimated
08:34PM 32.4667 133.2729 220° Southwest  Level Estimated
08:35PM 32.3765 133.1850 219° Southwest  Level Estimated
08:36PM 32.2862 133.0973 219° Southwest  Level Estimated
08:37PM 32.1969 133.0108 219° Southwest  Level Estimated
08:38PM 32.1075 132.9244 219° Southwest  Level Estimated
08:39PM 32.0180 132.8382 219° Southwest  Level Estimated
08:40PM 31.9285 132.7521 219° Southwest  Level Estimated
08:41PM 31.8389 132.6662 219° Southwest  Level Estimated
08:42PM 31.7493 132.5805 219° Southwest  Level Estimated
08:43PM 31.6596 132.4949 219° Southwest  Level Estimated
08:44PM 31.5699 132.4096 219° Southwest  Level Estimated
08:45PM 31.4801 132.3243 219° Southwest  Level Estimated
08:46PM 31.3902 132.2393 219° Southwest  Level Estimated
08:47PM 31.3003 132.1544 219° Southwest  Level Estimated
08:48PM 31.2104 132.0696 219° Southwest  Level Estimated
08:49PM 31.1203 131.9851 219° Southwest  Level Estimated
08:50PM 31.0303 131.9007 219° Southwest  Level Estimated
08:51PM 30.9391 131.8155 219° Southwest  Level Estimated
08:52PM 30.8479 131.7304 219° Southwest  Level Estimated
08:53PM 30.7567 131.6456 219° Southwest  Level Estimated
08:54PM 30.6654 131.5609 219° Southwest  Level Estimated
08:55PM 30.5741 131.4763 219° Southwest  Level Estimated
08:56PM 30.4827 131.3919 219° Southwest  Level Estimated
08:57PM 30.3912 131.3077 218° Southwest  Level Estimated
08:58PM 30.2997 131.2236 218° Southwest  Level Estimated
08:59PM 30.2081 131.1397 218° Southwest  Level Estimated
09:00PM 30.1165 131.0559 218° Southwest  Level Estimated
09:01PM 30.0248 130.9723 218° Southwest  Level Estimated
09:02PM 29.9331 130.8889 218° Southwest  Level Estimated
09:03PM 29.8413 130.8056 218° Southwest  Level Estimated
09:04PM 29.7495 130.7225 218° Southwest  Level Estimated
09:05PM 29.6576 130.6395 218° Southwest  Level Estimated
09:06PM 29.5656 130.5566 218° Southwest  Level Estimated
09:07PM 29.4736 130.4739 218° Southwest  Level Estimated
09:08PM 29.3816 130.3914 218° Southwest  Level Estimated
09:09PM 29.2895 130.3090 218° Southwest  Level Estimated
09:10PM 29.1994 130.2286 218° Southwest  Level Estimated
09:11PM 29.1092 130.1483 218° Southwest  Level Estimated
09:12PM 29.0190 130.0681 218° Southwest  Level Estimated
09:13PM 28.9287 129.9881 218° Southwest  Level Estimated
09:14PM 28.8384 129.9082 218° Southwest  Level Estimated
09:15PM 28.7480 129.8284 218° Southwest  Level Estimated
09:16PM 28.6576 129.7488 218° Southwest  Level Estimated
09:17PM 28.5671 129.6693 218° Southwest  Level Estimated
09:18PM 28.4766 129.5900 218° Southwest  Level Estimated
09:19PM 28.3860 129.5108 218° Southwest  Level Estimated
09:20PM 28.2954 129.4317 218° Southwest  Level Estimated
09:21PM 28.2048 129.3528 218° Southwest  Level Estimated
09:22PM 28.1141 129.2740 217° Southwest  Level Estimated
09:23PM 28.0233 129.1953 217° Southwest  Level Estimated
09:24PM 27.9326 129.1167 217° Southwest  Level Estimated
09:25PM 27.8417 129.0383 217° Southwest  Level Estimated
09:26PM 27.7509 128.9601 217° Southwest  Level Estimated
09:27PM 27.6599 128.8819 217° Southwest  Level Estimated
09:28PM 27.5690 128.8039 217° Southwest  Level Estimated
09:29PM 27.4780 128.7260 217° Southwest  Level Estimated
09:30PM 27.3869 128.6483 217° Southwest  Level Estimated
09:31PM 27.2958 128.5707 217° Southwest  Level Estimated
09:32PM 27.2047 128.4932 217° Southwest  Level Estimated
09:33PM 27.1135 128.4158 217° Southwest  Level Estimated
09:34PM 27.0223 128.3385 217° Southwest  Level Estimated
09:35PM 26.9310 128.2614 217° Southwest  Level Estimated
09:36PM 26.8397 128.1844 217° Southwest  Level Estimated
09:37PM 26.7484 128.1076 217° Southwest  Level Estimated
09:38PM 26.6570 128.0308 217° Southwest  Level Estimated
09:39PM 26.5656 127.9542 217° Southwest  Level Estimated
09:40PM 26.4741 127.8777 217° Southwest  Level Estimated
09:41PM 26.3826 127.8013 217° Southwest  Level Estimated
09:42PM 26.2910 127.7250 217° Southwest  Level Estimated
09:43PM 26.1994 127.6489 217° Southwest  Level Estimated
09:44PM 26.1958 127.6459 217° Southwest  Level Estimated
09:45PM 26.1958 127.6459 347° North  Level Estimated
09:46PM 26.1958 127.6459 347° North  Level Estimated
09:47PM 26.1958 127.6459 347° North  Level Estimated
09:48PM 26.1958 127.6459 347° North  Level Estimated
09:49PM 26.1958 127.6459 347° North  Level Estimated
09:50PM 26.1958 127.6459 347° North  Level Estimated
09:51PM 26.1958 127.6459 347° North  Level Estimated
09:52PM 26.1958 127.6459 347° North  Level Estimated
09:53PM 26.1958 127.6459 347° North  Level Estimated
09:54PM 26.1958 127.6459 347° North  Level Estimated
09:55PM 26.1958 127.6459 347° North  Level Estimated
09:56PM 26.1958 127.6459 347° North  Level Estimated
09:57PM 26.1958 127.6459 347° North  Level Estimated
09:58PM 26.1958 127.6459 347° North  Level Estimated